createdAt,value
2023-12-17T00:01:11.295Z,2.47
2023-12-17T00:03:38.930Z,2.88
2023-12-17T00:06:06.664Z,2.97
2023-12-17T00:08:33.763Z,3.38
2023-12-17T00:11:00.924Z,1.75
2023-12-17T00:13:28.106Z,3.00
2023-12-17T00:15:55.241Z,3.33
2023-12-17T00:18:22.643Z,3.05
2023-12-17T00:20:49.767Z,1.50
2023-12-17T00:23:16.798Z,2.35
2023-12-17T00:25:43.788Z,2.22
2023-12-17T00:28:10.870Z,1.67
2023-12-17T00:30:38.168Z,1.63
2023-12-17T00:33:05.527Z,2.63
2023-12-17T00:35:32.686Z,2.50
2023-12-17T00:37:59.935Z,2.60
2023-12-17T00:40:26.949Z,2.20
2023-12-17T00:42:54.129Z,2.03
2023-12-17T00:45:21.311Z,3.92
2023-12-17T00:47:48.663Z,2.50
2023-12-17T00:50:15.783Z,4.30
2023-12-17T00:52:43.105Z,3.75
2023-12-17T00:55:10.184Z,3.53
2023-12-17T00:57:37.413Z,5.93
2023-12-17T01:00:05.140Z,2.65
2023-12-17T01:02:32.278Z,2.80
2023-12-17T01:04:59.382Z,3.35
2023-12-17T01:07:26.630Z,2.90
2023-12-17T01:09:53.759Z,3.25
2023-12-17T01:12:21.217Z,2.88
2023-12-17T01:14:48.641Z,9.27
2023-12-17T01:17:15.735Z,6.85
2023-12-17T01:19:43.045Z,2.55
2023-12-17T01:22:10.128Z,3.08
2023-12-17T01:24:37.178Z,3.90
2023-12-17T01:27:04.331Z,2.83
2023-12-17T01:29:31.417Z,3.72
2023-12-17T01:31:59.044Z,2.20
2023-12-17T01:34:27.445Z,2.20
2023-12-17T01:36:54.503Z,3.47
2023-12-17T01:39:21.521Z,3.17
2023-12-17T01:41:48.773Z,3.00
2023-12-17T01:44:15.809Z,2.25
2023-12-17T01:46:42.757Z,1.55
2023-12-17T01:49:10.042Z,1.52
2023-12-17T01:51:37.465Z,2.78
2023-12-17T01:54:04.838Z,2.22
2023-12-17T01:56:31.917Z,2.90
2023-12-17T01:58:58.975Z,2.35
2023-12-17T02:01:25.969Z,2.50
2023-12-17T02:03:53.168Z,2.30
2023-12-17T02:06:20.290Z,2.47
2023-12-17T02:08:47.441Z,2.65
2023-12-17T02:11:14.463Z,2.28
2023-12-17T02:13:41.718Z,2.22
2023-12-17T02:16:08.915Z,2.13
2023-12-17T02:18:36.231Z,1.80
2023-12-17T02:21:03.404Z,2.00
2023-12-17T02:23:30.741Z,1.90
2023-12-17T02:25:57.800Z,1.25
2023-12-17T02:28:24.831Z,2.50
2023-12-17T02:30:51.850Z,3.08
2023-12-17T02:33:19.027Z,2.20
2023-12-17T02:35:46.246Z,1.08
2023-12-17T02:38:13.272Z,1.58
2023-12-17T02:40:41.298Z,1.45
2023-12-17T02:43:08.351Z,1.85
2023-12-17T02:45:35.500Z,2.17
2023-12-17T02:48:02.851Z,1.73
2023-12-17T02:50:30.265Z,1.50
2023-12-17T02:52:57.344Z,1.80
2023-12-17T02:55:24.366Z,2.17
2023-12-17T02:57:52.829Z,1.80
2023-12-17T03:00:20.109Z,3.65
2023-12-17T03:02:47.479Z,1.85
2023-12-17T03:05:14.778Z,2.97
2023-12-17T03:07:42.158Z,3.03
2023-12-17T03:10:11.005Z,1.77
2023-12-17T03:12:38.091Z,2.65
2023-12-17T03:15:06.318Z,2.50
2023-12-17T03:17:36.652Z,1.30
2023-12-17T03:20:05.694Z,1.67
2023-12-17T03:22:32.953Z,1.17
2023-12-17T03:25:00.300Z,1.80
2023-12-17T03:27:27.325Z,1.33
2023-12-17T03:29:54.536Z,0.90
2023-12-17T03:32:22.103Z,0.95
2023-12-17T03:34:49.370Z,1.40
2023-12-17T03:37:16.603Z,2.03
2023-12-17T03:39:43.657Z,1.38
2023-12-17T03:42:10.730Z,1.70
2023-12-17T03:44:38.058Z,0.90
2023-12-17T03:47:05.032Z,1.60
2023-12-17T03:49:32.249Z,1.83
2023-12-17T03:51:59.308Z,2.08
2023-12-17T03:54:26.501Z,1.30
2023-12-17T03:56:53.568Z,2.15
2023-12-17T03:59:20.701Z,1.30
2023-12-17T04:01:48.648Z,2.35
2023-12-17T04:04:15.930Z,7.22
2023-12-17T04:06:43.809Z,6.30
2023-12-17T04:09:11.540Z,6.70
2023-12-17T04:11:38.701Z,6.32
2023-12-17T04:14:05.828Z,5.93
2023-12-17T04:16:33.112Z,4.10
2023-12-17T04:19:00.226Z,5.32
2023-12-17T04:21:27.365Z,4.43
2023-12-17T04:23:55.510Z,3.13
2023-12-17T04:26:22.694Z,2.67
2023-12-17T04:28:49.753Z,2.85
2023-12-17T04:31:16.915Z,1.63
2023-12-17T04:33:44.327Z,2.22
2023-12-17T04:36:11.602Z,2.78
2023-12-17T04:38:39.166Z,2.63
2023-12-17T04:41:06.463Z,4.55
2023-12-17T04:43:33.569Z,3.30
2023-12-17T04:46:00.711Z,2.55
2023-12-17T04:48:27.967Z,1.83
2023-12-17T04:50:55.178Z,1.52
2023-12-17T04:53:22.267Z,1.58
2023-12-17T04:55:49.212Z,1.80
2023-12-17T04:58:16.207Z,2.10
2023-12-17T05:00:43.261Z,3.42
2023-12-17T05:03:10.832Z,3.13
2023-12-17T05:05:38.044Z,2.20
2023-12-17T05:08:05.905Z,2.63
2023-12-17T05:10:33.137Z,1.75
2023-12-17T05:13:00.218Z,1.52
2023-12-17T05:15:27.274Z,4.20
2023-12-17T05:17:54.341Z,4.95
2023-12-17T05:20:21.493Z,6.72
2023-12-17T05:22:48.440Z,8.38
2023-12-17T05:25:16.776Z,22.52
2023-12-17T05:27:44.412Z,15.43
2023-12-17T05:30:12.665Z,12.23
2023-12-17T05:32:40.033Z,13.88
2023-12-17T05:35:07.693Z,9.07
2023-12-17T05:37:34.708Z,11.98
2023-12-17T05:40:01.771Z,6.20
2023-12-17T05:42:28.870Z,8.50
2023-12-17T05:44:55.964Z,18.13
2023-12-17T05:47:23.083Z,9.60
2023-12-17T05:49:50.287Z,13.48
2023-12-17T05:52:18.391Z,31.48
2023-12-17T05:54:45.745Z,20.95
2023-12-17T05:57:13.163Z,17.95
2023-12-17T05:59:40.222Z,12.68
2023-12-17T06:02:08.853Z,20.08
2023-12-17T06:04:36.036Z,15.23
2023-12-17T06:07:03.230Z,11.48
2023-12-17T06:09:30.799Z,25.40
2023-12-17T06:11:59.235Z,22.15
2023-12-17T06:14:26.630Z,26.67
2023-12-17T06:16:53.780Z,19.27
2023-12-17T06:19:21.327Z,9.68
2023-12-17T06:21:48.933Z,2.25
2023-12-17T06:24:16.212Z,3.22
2023-12-17T06:26:43.303Z,8.57
2023-12-17T06:29:15.110Z,14.25
2023-12-17T06:31:42.440Z,15.07
2023-12-17T06:34:09.647Z,10.00
2023-12-17T06:36:36.730Z,12.85
2023-12-17T06:39:04.377Z,8.88
2023-12-17T06:41:31.485Z,6.80
2023-12-17T06:43:58.566Z,10.18
2023-12-17T06:46:25.669Z,6.75
2023-12-17T06:48:53.799Z,3.10
2023-12-17T06:51:21.335Z,3.42
2023-12-17T06:53:50.353Z,8.75
2023-12-17T06:56:18.447Z,10.02
2023-12-17T06:58:45.478Z,23.75
2023-12-17T07:01:15.766Z,26.98
2023-12-17T07:03:43.446Z,21.05
2023-12-17T07:06:13.053Z,20.60
2023-12-17T07:08:40.316Z,15.70
2023-12-17T07:11:07.479Z,15.00
2023-12-17T07:13:34.733Z,31.75
2023-12-17T07:16:01.928Z,29.02
2023-12-17T07:18:29.149Z,23.92
2023-12-17T07:20:56.442Z,25.15
2023-12-17T07:23:25.900Z,11.88
2023-12-17T07:25:53.711Z,17.75
2023-12-17T07:28:20.759Z,22.88
2023-12-17T07:30:47.904Z,20.45
2023-12-17T07:33:15.415Z,7.95
2023-12-17T07:35:42.684Z,25.48
2023-12-17T07:38:09.630Z,23.67
2023-12-17T07:40:36.679Z,21.63
2023-12-17T07:43:03.919Z,22.85
2023-12-17T07:45:31.045Z,27.77
2023-12-17T07:47:58.274Z,21.38
2023-12-17T07:50:25.434Z,21.88
2023-12-17T07:52:52.517Z,18.25
2023-12-17T07:55:19.624Z,15.07
2023-12-17T07:57:46.726Z,16.88
2023-12-17T08:00:14.641Z,14.63
2023-12-17T08:02:41.777Z,13.52
2023-12-17T08:05:09.559Z,12.45
2023-12-17T08:07:38.950Z,16.88
2023-12-17T08:10:07.587Z,14.68
2023-12-17T08:12:34.995Z,14.55
2023-12-17T08:15:02.094Z,13.50
2023-12-17T08:17:29.140Z,13.40
2023-12-17T08:19:56.354Z,13.48
2023-12-17T08:22:23.475Z,24.33
2023-12-17T08:24:50.536Z,27.92
2023-12-17T08:27:17.780Z,18.60
2023-12-17T08:29:52.216Z,15.30
2023-12-17T08:34:46.627Z,14.65
2023-12-17T08:37:14.381Z,17.27
2023-12-17T08:39:41.432Z,14.00
2023-12-17T08:42:09.020Z,8.05
2023-12-17T08:44:36.137Z,9.55
2023-12-17T08:47:04.361Z,29.52
2023-12-17T08:49:31.650Z,6.38
2023-12-17T08:51:58.814Z,6.25
2023-12-17T08:54:25.929Z,8.18
2023-12-17T08:56:53.342Z,14.38
2023-12-17T08:59:20.370Z,8.52
2023-12-17T09:01:47.335Z,4.72
2023-12-17T09:04:14.478Z,6.82
2023-12-17T09:06:43.737Z,6.50
2023-12-17T09:09:10.792Z,6.68
2023-12-17T09:11:37.796Z,11.00
2023-12-17T09:14:04.876Z,4.30
2023-12-17T09:16:32.225Z,7.75
2023-12-17T09:18:59.607Z,8.57
2023-12-17T09:21:27.524Z,3.75
2023-12-17T09:23:54.586Z,4.38
2023-12-17T09:26:21.686Z,6.20
2023-12-17T09:28:49.102Z,7.80
2023-12-17T09:31:16.255Z,2.78
2023-12-17T09:33:43.798Z,2.15
2023-12-17T09:36:10.966Z,2.08
2023-12-17T09:38:38.052Z,3.72
2023-12-17T09:41:08.170Z,2.05
2023-12-17T09:43:35.080Z,6.00
2023-12-17T09:46:02.074Z,6.53
2023-12-17T09:48:29.289Z,9.35
2023-12-17T09:50:56.357Z,5.90
2023-12-17T09:53:23.630Z,7.28
2023-12-17T09:55:50.745Z,8.07
2023-12-17T09:58:20.228Z,4.45
2023-12-17T10:00:47.746Z,2.60
2023-12-17T10:03:16.501Z,1.33
2023-12-17T10:05:44.289Z,2.97
2023-12-17T10:08:11.208Z,2.00
2023-12-17T10:10:38.129Z,2.47
2023-12-17T10:13:05.532Z,5.03
2023-12-17T10:15:37.272Z,3.90
2023-12-17T10:18:05.256Z,4.53
2023-12-17T10:20:32.427Z,5.05
2023-12-17T10:23:00.456Z,4.88
2023-12-17T10:25:29.959Z,3.55
2023-12-17T10:27:58.920Z,6.45
2023-12-17T10:30:30.870Z,5.22
2023-12-17T10:32:59.638Z,2.83
2023-12-17T10:38:01.685Z,3.13
2023-12-17T10:42:59.114Z,3.35
2023-12-17T10:45:27.138Z,3.83
2023-12-17T10:47:58.032Z,5.60
2023-12-17T10:50:26.091Z,5.20
2023-12-17T10:52:53.240Z,5.50
2023-12-17T10:55:21.043Z,4.45
2023-12-17T10:57:56.685Z,5.72
2023-12-17T11:00:25.961Z,4.43
2023-12-17T11:02:54.403Z,2.97
2023-12-17T11:05:21.442Z,2.85
2023-12-17T11:07:48.426Z,3.22
2023-12-17T11:10:17.001Z,3.15
2023-12-17T11:12:46.512Z,2.53
2023-12-17T11:15:13.922Z,5.47
2023-12-17T11:17:45.396Z,7.45
2023-12-17T11:20:13.949Z,5.15
2023-12-17T11:22:41.409Z,4.20
2023-12-17T11:25:12.461Z,5.40
2023-12-17T11:27:40.936Z,3.47
2023-12-17T11:30:30.576Z,4.22
2023-12-17T11:33:00.024Z,4.88
2023-12-17T11:35:29.241Z,5.93
2023-12-17T11:37:58.075Z,6.28
2023-12-17T11:40:25.350Z,5.65
2023-12-17T11:42:59.417Z,4.43
2023-12-17T11:45:37.874Z,4.53
2023-12-17T11:48:14.826Z,5.10
2023-12-17T11:50:52.232Z,4.15
2023-12-17T11:53:20.180Z,4.55
2023-12-17T11:55:53.681Z,4.38
2023-12-17T11:58:21.784Z,4.78
2023-12-17T12:01:12.271Z,5.40
2023-12-17T12:03:40.508Z,6.97
2023-12-17T12:06:10.907Z,5.80
2023-12-17T12:08:41.016Z,4.45
2023-12-17T12:11:09.762Z,4.00
2023-12-17T12:13:42.408Z,3.40
2023-12-17T12:16:10.372Z,7.70
2023-12-17T12:18:37.789Z,3.45
2023-12-17T12:21:20.007Z,2.92
2023-12-17T12:23:54.317Z,4.47
2023-12-17T12:26:25.781Z,4.30
2023-12-17T12:29:00.613Z,2.80
2023-12-17T12:31:28.933Z,3.63
2023-12-17T12:34:03.788Z,4.00
2023-12-17T12:39:11.295Z,3.63
2023-12-17T12:41:43.348Z,3.92
2023-12-17T12:44:11.783Z,2.97
2023-12-17T12:46:39.018Z,2.38
2023-12-17T12:49:06.543Z,3.55
2023-12-17T12:51:34.192Z,5.30
2023-12-17T12:54:03.762Z,4.72
2023-12-17T12:56:31.150Z,2.63
2023-12-17T12:58:58.173Z,4.88
2023-12-17T13:01:25.268Z,9.95
2023-12-17T13:03:52.551Z,4.35
2023-12-17T13:06:20.060Z,5.53
2023-12-17T13:08:47.124Z,6.70
2023-12-17T13:11:14.316Z,7.82
2023-12-17T13:13:41.434Z,5.38
2023-12-17T13:16:09.866Z,4.32
2023-12-17T13:18:36.992Z,4.03
2023-12-17T13:21:04.378Z,5.85
2023-12-17T13:23:31.571Z,6.15
2023-12-17T13:26:04.249Z,9.18
2023-12-17T13:28:37.927Z,12.80
2023-12-17T13:31:05.349Z,16.83
2023-12-17T13:33:32.624Z,9.07
2023-12-17T13:35:59.684Z,7.63
2023-12-17T13:38:27.880Z,9.32
2023-12-17T13:41:44.874Z,8.23
2023-12-17T13:44:15.442Z,7.93
2023-12-17T13:46:42.493Z,7.68
2023-12-17T13:49:09.887Z,6.60
2023-12-17T13:51:40.055Z,8.68
2023-12-17T13:54:07.327Z,9.95
2023-12-17T13:56:39.097Z,13.15
2023-12-17T13:59:09.020Z,12.40
2023-12-17T14:01:36.073Z,10.13
2023-12-17T14:04:03.167Z,12.68
2023-12-17T14:06:30.163Z,13.70
2023-12-17T14:08:58.003Z,10.30
2023-12-17T14:11:33.528Z,10.70
2023-12-17T14:14:01.650Z,10.70
2023-12-17T14:16:32.533Z,11.07
2023-12-17T14:19:01.295Z,13.98
2023-12-17T14:21:30.817Z,19.52
2023-12-17T14:23:58.548Z,19.80
2023-12-17T14:26:26.045Z,18.80
2023-12-17T14:28:58.188Z,17.10
2023-12-17T14:31:31.836Z,21.55
2023-12-17T14:34:05.998Z,23.15
2023-12-17T14:36:39.009Z,25.02
2023-12-17T14:39:06.495Z,19.42
2023-12-17T14:41:33.913Z,17.77
2023-12-17T14:44:01.526Z,14.30
2023-12-17T14:46:28.569Z,16.20
2023-12-17T14:48:55.763Z,16.52
2023-12-17T14:51:23.020Z,22.10
2023-12-17T14:53:55.752Z,24.35
2023-12-17T14:56:25.924Z,24.20
2023-12-17T14:58:58.080Z,22.42
2023-12-17T15:01:34.870Z,23.90
2023-12-17T15:04:03.664Z,17.98
2023-12-17T15:06:31.413Z,19.70
2023-12-17T15:09:00.896Z,17.73
2023-12-17T15:11:29.696Z,16.60
2023-12-17T15:13:58.501Z,20.98
2023-12-17T15:16:25.808Z,32.85
2023-12-17T15:18:52.842Z,28.58
2023-12-17T15:21:22.271Z,29.67
2023-12-17T15:23:49.972Z,26.90
2023-12-17T15:26:17.828Z,22.75
2023-12-17T15:28:44.939Z,21.92
2023-12-17T15:31:15.935Z,20.20
2023-12-17T15:33:43.482Z,19.23
2023-12-17T15:36:10.736Z,20.85
2023-12-17T15:38:40.638Z,19.67
2023-12-17T15:41:08.810Z,16.25
2023-12-17T15:43:35.939Z,21.85
2023-12-17T15:46:04.337Z,22.52
2023-12-17T15:48:31.685Z,21.17
2023-12-17T15:50:59.165Z,19.35
2023-12-17T15:53:26.409Z,19.45
2023-12-17T15:55:53.483Z,24.38
2023-12-17T15:58:21.948Z,21.08
2023-12-17T16:00:49.767Z,20.17
2023-12-17T16:03:16.942Z,18.63
2023-12-17T16:05:45.275Z,16.35
2023-12-17T16:08:12.353Z,15.18
2023-12-17T16:10:39.384Z,15.18
2023-12-17T16:13:07.069Z,14.55
2023-12-17T16:15:34.408Z,14.60
2023-12-17T16:18:01.739Z,14.60
2023-12-17T16:20:29.274Z,16.73
2023-12-17T16:22:57.369Z,18.45
2023-12-17T16:25:24.801Z,32.78
2023-12-17T16:27:53.078Z,26.58
2023-12-17T16:30:23.351Z,24.20
2023-12-17T16:32:50.659Z,18.67
2023-12-17T16:35:18.026Z,12.35
2023-12-17T16:37:45.317Z,18.33
2023-12-17T16:40:12.323Z,28.80
2023-12-17T16:42:39.573Z,42.28
2023-12-17T16:45:08.248Z,14.73
2023-12-17T16:47:35.478Z,13.70
2023-12-17T16:50:04.712Z,13.10
2023-12-17T16:52:31.905Z,15.65
2023-12-17T16:54:59.065Z,10.10
2023-12-17T16:57:26.494Z,7.22
2023-12-17T16:59:54.218Z,10.70
2023-12-17T17:02:21.470Z,12.95
2023-12-17T17:04:48.634Z,17.42
2023-12-17T17:07:17.276Z,14.43
2023-12-17T17:09:44.384Z,17.17
2023-12-17T17:12:11.651Z,8.43
2023-12-17T17:14:38.891Z,14.40
2023-12-17T17:17:05.881Z,16.13
2023-12-17T17:19:33.832Z,14.40
2023-12-17T17:22:01.761Z,17.27
2023-12-17T17:24:28.877Z,18.77
2023-12-17T17:26:56.089Z,14.88
2023-12-17T17:29:23.158Z,13.93
2023-12-17T17:31:52.374Z,20.98
2023-12-17T17:36:49.751Z,19.70
2023-12-17T17:39:17.033Z,22.25
2023-12-17T17:41:45.065Z,17.13
2023-12-17T17:44:12.187Z,17.55
2023-12-17T17:46:39.317Z,25.85
2023-12-17T17:49:06.826Z,12.43
2023-12-17T17:51:33.998Z,16.45
2023-12-17T17:54:01.154Z,18.25
2023-12-17T17:56:28.366Z,16.50
2023-12-17T17:58:55.478Z,14.57
2023-12-17T18:01:22.597Z,13.88
2023-12-17T18:03:50.245Z,12.38
2023-12-17T18:06:17.646Z,15.68
2023-12-17T18:08:44.593Z,11.85
2023-12-17T18:11:11.586Z,12.57
2023-12-17T18:13:38.686Z,9.43
2023-12-17T18:16:05.987Z,11.00
2023-12-17T18:18:33.134Z,11.05
2023-12-17T18:21:00.390Z,9.20
2023-12-17T18:23:27.950Z,7.95
2023-12-17T18:25:55.676Z,12.27
2023-12-17T18:28:22.787Z,14.77
2023-12-17T18:30:49.875Z,13.23
2023-12-17T18:33:17.100Z,16.13
2023-12-17T18:35:44.576Z,13.00
2023-12-17T18:38:11.622Z,15.85
2023-12-17T18:40:38.877Z,12.25
2023-12-17T18:43:05.817Z,15.35
2023-12-17T18:45:33.652Z,13.73
2023-12-17T18:48:00.971Z,13.48
2023-12-17T18:50:31.321Z,10.80
2023-12-17T18:52:59.291Z,12.40
2023-12-17T18:55:27.104Z,24.38
2023-12-17T18:57:54.518Z,10.27
2023-12-17T19:00:21.546Z,10.20
2023-12-17T19:02:49.949Z,12.18
2023-12-17T19:05:17.330Z,9.32
2023-12-17T19:07:44.488Z,10.45
2023-12-17T19:10:12.160Z,10.63
2023-12-17T19:12:39.778Z,13.63
2023-12-17T19:15:07.747Z,8.27
2023-12-17T19:17:35.165Z,12.63
2023-12-17T19:20:02.239Z,9.00
2023-12-17T19:22:29.500Z,9.43
2023-12-17T19:24:56.648Z,10.25
2023-12-17T19:27:23.828Z,10.73
2023-12-17T19:29:51.471Z,8.48
2023-12-17T19:32:18.610Z,8.38
2023-12-17T19:34:45.940Z,8.82
2023-12-17T19:37:13.252Z,9.77
2023-12-17T19:39:41.429Z,7.30
2023-12-17T19:42:08.746Z,4.85
2023-12-17T19:44:36.300Z,6.47
2023-12-17T19:47:03.469Z,10.93
2023-12-17T19:49:30.871Z,9.35
2023-12-17T19:51:57.966Z,11.52
2023-12-17T19:54:25.195Z,6.13
2023-12-17T19:56:52.257Z,8.45
2023-12-17T19:59:20.393Z,8.00
2023-12-17T20:01:48.348Z,7.60
2023-12-17T20:04:17.912Z,7.35
2023-12-17T20:06:45.024Z,5.75
2023-12-17T20:09:12.104Z,7.25
2023-12-17T20:11:39.368Z,8.52
2023-12-17T20:14:06.861Z,10.68
2023-12-17T20:16:34.896Z,9.07
2023-12-17T20:19:02.834Z,8.80
2023-12-17T20:21:30.411Z,10.23
2023-12-17T20:23:57.521Z,9.15
2023-12-17T20:26:24.571Z,12.00
2023-12-17T20:28:51.610Z,8.57
2023-12-17T20:31:21.152Z,7.85
2023-12-17T20:33:49.303Z,8.85
2023-12-17T20:36:17.434Z,9.77
2023-12-17T20:38:44.901Z,6.35
2023-12-17T20:41:17.684Z,9.23
2023-12-17T20:43:45.268Z,5.55
2023-12-17T20:46:12.363Z,12.48
2023-12-17T20:48:39.567Z,9.93
2023-12-17T20:51:07.159Z,12.63
2023-12-17T20:53:34.188Z,11.38
2023-12-17T20:56:02.411Z,10.35
2023-12-17T20:58:29.555Z,11.00
2023-12-17T21:00:56.804Z,12.75
2023-12-17T21:03:23.835Z,6.53
2023-12-17T21:05:51.347Z,9.30
2023-12-17T21:08:18.825Z,13.45
2023-12-17T21:10:46.187Z,13.25
2023-12-17T21:13:13.124Z,11.70
2023-12-17T21:15:40.453Z,10.15
2023-12-17T21:18:09.549Z,10.93
2023-12-17T21:20:36.741Z,11.88
2023-12-17T21:23:03.880Z,9.40
2023-12-17T21:25:31.032Z,7.85
2023-12-17T21:27:58.315Z,6.03
2023-12-17T21:30:25.522Z,8.85
2023-12-17T21:32:52.743Z,6.45
2023-12-17T21:35:20.079Z,7.22
2023-12-17T21:37:47.037Z,7.53
2023-12-17T21:40:14.084Z,15.02
2023-12-17T21:42:41.385Z,11.25
2023-12-17T21:45:09.328Z,5.18
2023-12-17T21:47:36.645Z,3.63
2023-12-17T21:50:03.668Z,3.88
2023-12-17T21:52:33.059Z,5.50
2023-12-17T21:55:01.523Z,4.80
2023-12-17T21:57:40.444Z,3.08
2023-12-17T22:00:20.446Z,4.18
2023-12-17T22:02:50.540Z,1.38
2023-12-17T22:05:19.545Z,2.10
2023-12-17T22:07:47.707Z,2.30
2023-12-17T22:10:18.165Z,3.45
2023-12-17T22:12:45.453Z,3.88
2023-12-17T22:15:12.952Z,4.68
2023-12-17T22:17:40.397Z,3.85
2023-12-17T22:20:08.389Z,3.65
2023-12-17T22:22:35.444Z,7.25
2023-12-17T22:25:02.691Z,4.45
2023-12-17T22:27:30.839Z,4.07
2023-12-17T22:30:01.263Z,8.05
2023-12-17T22:32:28.533Z,4.13
2023-12-17T22:34:55.736Z,2.67
2023-12-17T22:37:23.001Z,3.63
2023-12-17T22:39:50.137Z,3.30
2023-12-17T22:42:17.206Z,3.70
2023-12-17T22:44:49.450Z,6.13
2023-12-17T22:47:16.762Z,5.50
2023-12-17T22:49:44.178Z,4.15
2023-12-17T22:52:11.387Z,4.78
2023-12-17T22:54:38.613Z,5.93
2023-12-17T22:57:05.816Z,7.20
2023-12-17T22:59:32.944Z,7.00
2023-12-17T23:02:00.255Z,4.50
2023-12-17T23:04:27.428Z,5.82
2023-12-17T23:06:54.738Z,4.18
2023-12-17T23:09:21.818Z,5.03
2023-12-17T23:11:49.342Z,4.15
2023-12-17T23:14:16.700Z,3.33
2023-12-17T23:16:44.060Z,4.85
2023-12-17T23:19:11.238Z,3.83
2023-12-17T23:21:38.513Z,2.72
2023-12-17T23:24:05.848Z,3.40
2023-12-17T23:26:33.012Z,4.35
2023-12-17T23:29:00.060Z,4.03
2023-12-17T23:31:27.179Z,5.47
2023-12-17T23:33:54.776Z,3.58
2023-12-17T23:36:21.847Z,4.45
2023-12-17T23:38:48.861Z,2.45
2023-12-17T23:41:16.379Z,6.97
2023-12-17T23:43:43.479Z,4.72
2023-12-17T23:46:10.582Z,3.78
2023-12-17T23:48:38.343Z,4.60
2023-12-17T23:51:05.660Z,2.30
2023-12-17T23:53:32.640Z,2.53
2023-12-17T23:55:59.944Z,1.67
2023-12-17T23:58:27.039Z,2.10
